createdAt,value
2024-02-11T00:02:13.918Z,8.43
2024-02-11T00:04:42.588Z,8.05
2024-02-11T00:07:09.489Z,7.72
2024-02-11T00:09:36.057Z,8.32
2024-02-11T00:12:02.606Z,8.63
2024-02-11T00:14:29.131Z,7.18
2024-02-11T00:17:00.926Z,7.53
2024-02-11T00:19:28.429Z,7.40
2024-02-11T00:21:55.007Z,6.43
2024-02-11T00:24:24.697Z,5.80
2024-02-11T00:26:51.257Z,6.13
2024-02-11T00:29:19.486Z,6.03
2024-02-11T00:31:46.137Z,5.65
2024-02-11T00:34:13.807Z,6.22
2024-02-11T00:36:42.117Z,5.55
2024-02-11T00:39:08.790Z,5.30
2024-02-11T00:41:40.399Z,4.80
2024-02-11T00:44:09.954Z,4.40
2024-02-11T00:46:36.915Z,4.82
2024-02-11T00:49:04.950Z,4.28
2024-02-11T00:51:31.785Z,4.30
2024-02-11T00:53:58.713Z,4.13
2024-02-11T00:56:25.421Z,3.83
2024-02-11T00:58:52.007Z,3.95
2024-02-11T01:01:18.626Z,3.25
2024-02-11T01:03:45.148Z,3.63
2024-02-11T01:06:13.325Z,3.00
2024-02-11T01:08:39.825Z,2.63
2024-02-11T01:11:09.644Z,1.90
2024-02-11T01:13:36.277Z,2.00
2024-02-11T01:16:02.851Z,1.60
2024-02-11T01:18:29.467Z,1.80
2024-02-11T01:20:56.692Z,2.00
2024-02-11T01:23:23.220Z,1.80
2024-02-11T01:25:50.987Z,2.08
2024-02-11T01:28:17.543Z,2.22
2024-02-11T01:30:46.501Z,2.50
2024-02-11T01:33:13.163Z,3.30
2024-02-11T01:35:42.925Z,3.72
2024-02-11T01:38:10.994Z,3.00
2024-02-11T01:40:37.693Z,2.90
2024-02-11T01:43:11.150Z,2.67
2024-02-11T01:45:38.136Z,3.15
2024-02-11T01:48:06.150Z,2.50
2024-02-11T01:50:35.348Z,2.75
2024-02-11T01:53:04.007Z,3.10
2024-02-11T01:55:31.668Z,2.67
2024-02-11T01:57:59.249Z,2.60
2024-02-11T02:00:26.163Z,2.40
2024-02-11T02:02:56.194Z,2.20
2024-02-11T02:05:23.033Z,1.65
2024-02-11T02:07:49.720Z,1.73
2024-02-11T02:10:16.300Z,1.38
2024-02-11T02:12:43.283Z,1.45
2024-02-11T02:15:10.888Z,1.00
2024-02-11T02:17:37.683Z,0.93
2024-02-11T02:20:05.414Z,0.90
2024-02-11T02:22:34.563Z,0.82
2024-02-11T02:25:01.114Z,0.88
2024-02-11T02:27:27.697Z,1.10
2024-02-11T02:29:55.244Z,1.20
2024-02-11T02:32:21.917Z,1.30
2024-02-11T02:34:48.576Z,1.33
2024-02-11T02:37:15.092Z,1.17
2024-02-11T02:39:41.845Z,1.17
2024-02-11T02:42:09.795Z,1.13
2024-02-11T02:44:38.641Z,1.42
2024-02-11T02:47:05.586Z,1.10
2024-02-11T02:49:33.723Z,1.70
2024-02-11T02:52:02.820Z,1.17
2024-02-11T02:54:29.612Z,1.17
2024-02-11T02:56:56.233Z,1.10
2024-02-11T02:59:22.856Z,1.20
2024-02-11T03:01:49.415Z,1.40
2024-02-11T03:04:17.385Z,1.50
2024-02-11T03:06:44.010Z,1.15
2024-02-11T03:09:10.909Z,1.52
2024-02-11T03:11:40.664Z,1.52
2024-02-11T03:14:07.309Z,1.60
2024-02-11T03:16:33.979Z,1.95
2024-02-11T03:19:00.612Z,1.88
2024-02-11T03:21:27.369Z,1.63
2024-02-11T03:23:53.932Z,1.90
2024-02-11T03:26:20.605Z,2.45
2024-02-11T03:28:47.284Z,1.88
2024-02-11T03:31:13.854Z,1.83
2024-02-11T03:33:40.547Z,2.00
2024-02-11T03:36:07.465Z,2.10
2024-02-11T03:38:34.039Z,2.53
2024-02-11T03:41:00.619Z,2.13
2024-02-11T03:43:27.232Z,2.25
2024-02-11T03:45:53.752Z,2.45
2024-02-11T03:48:20.410Z,2.08
2024-02-11T03:50:47.186Z,2.50
2024-02-11T03:53:16.307Z,2.28
2024-02-11T03:55:43.162Z,2.42
2024-02-11T03:58:09.983Z,2.67
2024-02-11T04:00:36.594Z,2.78
2024-02-11T04:03:03.401Z,2.50
2024-02-11T04:05:30.368Z,3.17
2024-02-11T04:07:57.722Z,3.10
2024-02-11T04:10:29.182Z,3.40
2024-02-11T04:12:59.689Z,2.90
2024-02-11T04:15:28.279Z,3.30
2024-02-11T04:17:57.775Z,3.42
2024-02-11T04:20:28.258Z,3.17
2024-02-11T04:22:59.633Z,3.25
2024-02-11T04:25:31.597Z,3.50
2024-02-11T04:27:58.204Z,3.13
2024-02-11T04:30:29.013Z,4.35
2024-02-11T04:32:55.928Z,3.95
2024-02-11T04:35:25.623Z,3.72
2024-02-11T04:37:56.588Z,3.97
2024-02-11T04:40:26.067Z,4.63
2024-02-11T04:42:58.150Z,4.65
2024-02-11T04:45:26.733Z,4.65
2024-02-11T04:48:00.817Z,5.22
2024-02-11T04:50:29.367Z,5.63
2024-02-11T04:52:58.141Z,5.72
2024-02-11T04:55:29.495Z,5.32
2024-02-11T04:57:59.988Z,5.13
2024-02-11T05:00:28.437Z,5.57
2024-02-11T05:02:57.188Z,5.47
2024-02-11T05:05:32.508Z,5.80
2024-02-11T05:08:04.509Z,5.53
2024-02-11T05:10:35.325Z,5.22
2024-02-11T05:13:06.127Z,6.70
2024-02-11T05:15:33.237Z,6.20
2024-02-11T05:18:01.641Z,6.60
2024-02-11T05:20:29.725Z,6.93
2024-02-11T05:22:58.175Z,6.10
2024-02-11T05:25:27.016Z,5.90
2024-02-11T05:27:59.794Z,7.22
2024-02-11T05:30:34.117Z,6.50
2024-02-11T05:33:03.384Z,6.72
2024-02-11T05:35:30.757Z,7.35
2024-02-11T05:38:00.623Z,7.25
2024-02-11T05:40:28.502Z,7.78
2024-02-11T05:42:56.143Z,7.10
2024-02-11T05:45:23.671Z,6.80
2024-02-11T05:47:54.333Z,6.28
2024-02-11T05:50:22.503Z,7.15
2024-02-11T05:52:50.178Z,7.20
2024-02-11T05:55:20.074Z,6.18
2024-02-11T05:57:48.257Z,6.72
2024-02-11T06:00:17.252Z,6.90
2024-02-11T06:02:48.223Z,6.75
2024-02-11T06:05:15.883Z,6.70
2024-02-11T06:07:53.190Z,9.13
2024-02-11T06:10:20.236Z,7.40
2024-02-11T06:12:48.116Z,7.72
2024-02-11T06:15:17.276Z,7.10
2024-02-11T06:17:44.269Z,7.35
2024-02-11T06:20:14.650Z,7.50
2024-02-11T06:22:43.574Z,7.05
2024-02-11T06:25:10.997Z,7.82
2024-02-11T06:27:40.422Z,7.70
2024-02-11T06:30:14.402Z,7.25
2024-02-11T06:32:43.293Z,7.43
2024-02-11T06:35:10.539Z,6.65
2024-02-11T06:37:41.666Z,7.28
2024-02-11T06:40:13.647Z,7.03
2024-02-11T06:42:40.690Z,6.32
2024-02-11T06:45:09.471Z,7.00
2024-02-11T06:47:37.804Z,7.00
2024-02-11T06:50:05.500Z,6.82
2024-02-11T06:52:32.335Z,7.32
2024-02-11T06:54:59.882Z,6.95
2024-02-11T06:57:26.528Z,7.75
2024-02-11T06:59:53.990Z,6.63
2024-02-11T07:02:21.737Z,6.50
2024-02-11T07:04:48.340Z,6.95
2024-02-11T07:07:14.969Z,6.78
2024-02-11T07:09:42.347Z,6.65
2024-02-11T07:12:09.220Z,6.95
2024-02-11T07:14:36.099Z,7.20
2024-02-11T07:17:02.800Z,5.95
2024-02-11T07:19:30.145Z,7.22
2024-02-11T07:21:57.289Z,6.82
2024-02-11T07:24:23.847Z,8.50
2024-02-11T07:26:50.334Z,6.75
2024-02-11T07:29:20.080Z,6.63
2024-02-11T07:31:46.775Z,7.30
2024-02-11T07:34:14.407Z,6.70
2024-02-11T07:36:43.268Z,7.22
2024-02-11T07:39:10.093Z,6.35
2024-02-11T07:41:36.658Z,6.90
2024-02-11T07:44:03.411Z,7.00
2024-02-11T07:46:30.958Z,6.85
2024-02-11T07:49:04.527Z,7.05
2024-02-11T07:51:31.481Z,7.28
2024-02-11T07:53:58.421Z,7.15
2024-02-11T07:56:26.642Z,7.18
2024-02-11T07:58:53.681Z,6.45
2024-02-11T08:01:20.382Z,6.60
2024-02-11T08:03:49.085Z,5.93
2024-02-11T08:06:15.946Z,5.93
2024-02-11T08:08:42.482Z,6.00
2024-02-11T08:11:09.474Z,5.85
2024-02-11T08:13:36.218Z,6.00
2024-02-11T08:16:04.241Z,5.93
2024-02-11T08:18:31.345Z,6.60
2024-02-11T08:20:58.939Z,5.78
2024-02-11T08:23:28.450Z,6.00
2024-02-11T08:25:56.480Z,6.15
2024-02-11T08:28:23.147Z,5.78
2024-02-11T08:30:49.678Z,5.30
2024-02-11T08:33:16.400Z,5.70
2024-02-11T08:35:47.616Z,5.65
2024-02-11T08:38:14.727Z,5.30
2024-02-11T08:40:41.474Z,5.07
2024-02-11T08:43:08.196Z,4.53
2024-02-11T08:45:34.821Z,5.20
2024-02-11T08:48:01.583Z,5.18
2024-02-11T08:50:28.636Z,5.05
2024-02-11T08:52:56.476Z,6.03
2024-02-11T08:55:23.056Z,5.43
2024-02-11T08:57:49.607Z,5.63
2024-02-11T09:00:17.851Z,5.53
2024-02-11T09:02:44.504Z,5.15
2024-02-11T09:05:11.443Z,4.55
2024-02-11T09:07:44.016Z,5.35
2024-02-11T09:10:11.100Z,5.45
2024-02-11T09:12:37.604Z,5.93
2024-02-11T09:15:04.371Z,6.03
2024-02-11T09:17:34.065Z,5.50
2024-02-11T09:20:01.569Z,6.07
2024-02-11T09:22:28.213Z,5.97
2024-02-11T09:24:55.782Z,5.20
2024-02-11T09:27:22.752Z,5.72
2024-02-11T09:29:49.860Z,5.28
2024-02-11T09:32:17.927Z,5.78
2024-02-11T09:34:44.718Z,5.25
2024-02-11T09:37:12.012Z,5.15
2024-02-11T09:39:38.624Z,4.85
2024-02-11T09:42:05.569Z,4.82
2024-02-11T09:44:35.043Z,5.13
2024-02-11T09:47:04.364Z,4.28
2024-02-11T09:49:32.656Z,4.35
2024-02-11T09:52:04.058Z,4.22
2024-02-11T09:54:32.664Z,3.95
2024-02-11T09:56:59.311Z,5.60
2024-02-11T09:59:28.814Z,4.60
2024-02-11T10:01:58.259Z,4.28
2024-02-11T10:04:29.400Z,4.10
2024-02-11T10:06:58.137Z,3.05
2024-02-11T10:09:24.734Z,4.10
2024-02-11T10:11:51.321Z,3.97
2024-02-11T10:14:19.953Z,7.55
2024-02-11T10:16:47.400Z,4.00
2024-02-11T10:19:14.259Z,5.72
2024-02-11T10:21:44.743Z,4.53
2024-02-11T10:24:11.286Z,4.20
2024-02-11T10:26:38.751Z,4.78
2024-02-11T10:29:05.663Z,4.20
2024-02-11T10:31:32.357Z,3.92
2024-02-11T10:33:59.633Z,3.88
2024-02-11T10:36:27.242Z,5.07
2024-02-11T10:38:55.405Z,3.70
2024-02-11T10:41:23.952Z,3.80
2024-02-11T10:43:52.387Z,3.30
2024-02-11T10:46:23.993Z,4.40
2024-02-11T10:48:53.880Z,3.58
2024-02-11T10:51:24.798Z,3.95
2024-02-11T10:54:02.700Z,3.92
2024-02-11T10:56:30.201Z,3.85
2024-02-11T10:59:10.204Z,4.80
2024-02-11T11:01:41.133Z,4.18
2024-02-11T11:04:14.258Z,4.15
2024-02-11T11:06:42.389Z,4.07
2024-02-11T11:09:11.141Z,3.75
2024-02-11T11:11:37.740Z,4.03
2024-02-11T11:14:10.994Z,3.55
2024-02-11T11:16:43.774Z,3.28
2024-02-11T11:19:15.725Z,3.03
2024-02-11T11:21:52.720Z,3.47
2024-02-11T11:24:19.843Z,3.22
2024-02-11T11:26:53.765Z,3.47
2024-02-11T11:31:48.487Z,3.38
2024-02-11T11:34:18.244Z,2.92
2024-02-11T11:36:44.929Z,3.08
2024-02-11T11:39:12.702Z,2.85
2024-02-11T11:41:39.356Z,3.67
2024-02-11T11:44:06.556Z,3.05
2024-02-11T11:46:34.210Z,3.78
2024-02-11T11:49:01.030Z,3.28
2024-02-11T11:51:33.723Z,3.20
2024-02-11T11:54:04.238Z,3.40
2024-02-11T11:56:31.135Z,4.55
2024-02-11T11:59:05.574Z,3.75
2024-02-11T12:01:33.878Z,4.18
2024-02-11T12:04:01.172Z,3.28
2024-02-11T12:06:27.926Z,3.50
2024-02-11T12:08:54.642Z,3.10
2024-02-11T12:11:22.088Z,2.95
2024-02-11T12:13:49.154Z,3.85
2024-02-11T12:16:18.263Z,3.50
2024-02-11T12:18:45.859Z,2.58
2024-02-11T12:21:12.544Z,3.03
2024-02-11T12:23:39.354Z,3.00
2024-02-11T12:26:09.055Z,2.78
2024-02-11T12:28:41.936Z,3.30
2024-02-11T12:31:13.996Z,2.78
2024-02-11T12:33:46.215Z,3.00
2024-02-11T12:36:14.883Z,3.45
2024-02-11T12:38:43.411Z,2.85
2024-02-11T12:41:11.010Z,2.70
2024-02-11T12:43:39.155Z,2.33
2024-02-11T12:46:07.816Z,2.58
2024-02-11T12:48:34.516Z,2.08
2024-02-11T12:51:02.331Z,2.38
2024-02-11T12:53:29.271Z,2.10
2024-02-11T12:55:57.961Z,2.30
2024-02-11T12:58:24.924Z,2.33
2024-02-11T13:00:51.573Z,2.33
2024-02-11T13:03:18.316Z,2.47
2024-02-11T13:05:45.229Z,2.28
2024-02-11T13:08:12.809Z,2.40
2024-02-11T13:10:39.589Z,2.42
2024-02-11T13:13:06.882Z,2.72
2024-02-11T13:15:35.017Z,3.65
2024-02-11T13:18:15.776Z,2.78
2024-02-11T13:20:46.271Z,4.13
2024-02-11T13:23:13.596Z,2.65
2024-02-11T13:25:45.575Z,3.25
2024-02-11T13:28:15.311Z,5.10
2024-02-11T13:30:42.354Z,2.15
2024-02-11T13:33:10.474Z,2.88
2024-02-11T13:35:39.133Z,2.20
2024-02-11T13:38:06.623Z,2.85
2024-02-11T13:40:34.194Z,2.25
2024-02-11T13:43:01.117Z,3.35
2024-02-11T13:45:31.710Z,3.10
2024-02-11T13:47:59.242Z,2.78
2024-02-11T13:50:26.012Z,2.67
2024-02-11T13:52:52.944Z,5.82
2024-02-11T13:55:20.001Z,3.83
2024-02-11T13:57:46.708Z,2.78
2024-02-11T14:00:14.128Z,2.65
2024-02-11T14:02:41.402Z,3.85
2024-02-11T14:05:08.319Z,4.05
2024-02-11T14:07:35.100Z,3.35
2024-02-11T14:10:01.826Z,2.97
2024-02-11T14:12:30.759Z,2.65
2024-02-11T14:14:58.270Z,2.13
2024-02-11T14:17:26.970Z,2.00
2024-02-11T14:19:53.662Z,2.80
2024-02-11T14:22:20.454Z,2.90
2024-02-11T14:24:46.999Z,4.07
2024-02-11T14:27:14.345Z,2.83
2024-02-11T14:29:42.205Z,2.30
2024-02-11T14:32:08.914Z,2.88
2024-02-11T14:34:36.345Z,3.05
2024-02-11T14:37:03.082Z,1.70
2024-02-11T14:39:29.967Z,2.00
2024-02-11T14:41:56.801Z,2.83
2024-02-11T14:44:27.129Z,2.30
2024-02-11T14:46:57.947Z,2.28
2024-02-11T14:49:26.104Z,1.90
2024-02-11T14:51:53.154Z,1.90
2024-02-11T14:54:19.684Z,1.92
2024-02-11T14:56:47.208Z,1.83
2024-02-11T14:59:13.999Z,1.80
2024-02-11T15:01:41.002Z,1.52
2024-02-11T15:04:08.647Z,2.25
2024-02-11T15:06:35.999Z,2.40
2024-02-11T15:09:05.628Z,2.08
2024-02-11T15:11:33.348Z,2.22
2024-02-11T15:14:01.553Z,4.95
2024-02-11T15:16:29.218Z,4.57
2024-02-11T15:18:55.923Z,2.40
2024-02-11T15:21:26.442Z,2.17
2024-02-11T15:23:53.546Z,4.03
2024-02-11T15:26:24.491Z,3.60
2024-02-11T15:28:51.936Z,2.42
2024-02-11T15:31:19.032Z,4.95
2024-02-11T15:33:45.824Z,6.68
2024-02-11T15:36:13.344Z,8.48
2024-02-11T15:38:40.708Z,6.32
2024-02-11T15:41:07.489Z,6.43
2024-02-11T15:43:34.062Z,5.32
2024-02-11T15:46:01.937Z,5.03
2024-02-11T15:48:28.601Z,4.38
2024-02-11T15:50:55.752Z,2.92
2024-02-11T15:53:26.539Z,4.63
2024-02-11T15:55:59.377Z,4.18
2024-02-11T15:58:26.055Z,3.83
2024-02-11T16:00:52.705Z,3.95
2024-02-11T16:03:19.440Z,3.10
2024-02-11T16:05:47.018Z,3.88
2024-02-11T16:08:13.915Z,2.40
2024-02-11T16:10:40.956Z,1.70
2024-02-11T16:13:08.032Z,1.27
2024-02-11T16:15:37.902Z,1.92
2024-02-11T16:18:04.758Z,1.63
2024-02-11T16:20:32.872Z,1.83
2024-02-11T16:22:59.604Z,2.35
2024-02-11T16:25:26.213Z,2.53
2024-02-11T16:27:52.919Z,1.40
2024-02-11T16:30:20.814Z,1.88
2024-02-11T16:32:48.620Z,1.50
2024-02-11T16:35:21.348Z,1.23
2024-02-11T16:37:49.983Z,1.98
2024-02-11T16:40:20.346Z,2.03
2024-02-11T16:42:47.771Z,1.98
2024-02-11T16:45:14.463Z,3.22
2024-02-11T16:47:41.260Z,3.90
2024-02-11T16:50:12.477Z,2.28
2024-02-11T16:52:40.282Z,1.75
2024-02-11T16:55:08.128Z,2.10
2024-02-11T16:57:35.122Z,1.73
2024-02-11T17:00:04.774Z,1.70
2024-02-11T17:02:31.828Z,1.55
2024-02-11T17:05:00.394Z,1.98
2024-02-11T17:07:29.291Z,2.45
2024-02-11T17:09:55.940Z,1.75
2024-02-11T17:12:22.499Z,2.25
2024-02-11T17:14:49.224Z,1.42
2024-02-11T17:17:16.176Z,1.80
2024-02-11T17:19:43.085Z,1.90
2024-02-11T17:22:12.093Z,1.52
2024-02-11T17:24:40.024Z,1.85
2024-02-11T17:27:07.150Z,1.40
2024-02-11T17:29:33.856Z,1.52
2024-02-11T17:32:00.541Z,1.38
2024-02-11T17:34:28.086Z,1.48
2024-02-11T17:36:55.060Z,1.35
2024-02-11T17:39:21.923Z,1.35
2024-02-11T17:41:48.553Z,1.88
2024-02-11T17:44:15.763Z,1.23
2024-02-11T17:46:42.862Z,1.27
2024-02-11T17:49:11.375Z,1.23
2024-02-11T17:51:41.678Z,1.40
2024-02-11T17:54:13.369Z,1.40
2024-02-11T17:56:46.077Z,1.50
2024-02-11T17:59:13.297Z,0.93
2024-02-11T18:01:41.501Z,1.13
2024-02-11T18:04:08.904Z,1.20
2024-02-11T18:06:36.956Z,1.20
2024-02-11T18:09:05.390Z,1.52
2024-02-11T18:11:37.061Z,1.25
2024-02-11T18:14:04.747Z,0.95
2024-02-11T18:16:32.439Z,1.10
2024-02-11T18:18:59.187Z,1.38
2024-02-11T18:21:28.482Z,1.27
2024-02-11T18:23:56.451Z,1.25
2024-02-11T18:26:23.133Z,1.25
2024-02-11T18:28:50.184Z,4.93
2024-02-11T18:31:18.229Z,2.35
2024-02-11T18:33:48.448Z,5.13
2024-02-11T18:36:15.052Z,2.60
2024-02-11T18:38:42.557Z,3.17
2024-02-11T18:41:09.477Z,3.78
2024-02-11T18:43:36.097Z,1.40
2024-02-11T18:46:06.307Z,4.43
2024-02-11T18:48:33.128Z,1.83
2024-02-11T18:50:59.755Z,2.53
2024-02-11T18:53:28.328Z,1.38
2024-02-11T18:55:55.739Z,1.67
2024-02-11T18:58:22.376Z,1.67
2024-02-11T19:00:49.919Z,1.23
2024-02-11T19:03:16.636Z,1.38
2024-02-11T19:05:44.583Z,2.53
2024-02-11T19:08:11.457Z,6.07
2024-02-11T19:10:38.165Z,3.33
2024-02-11T19:13:05.775Z,10.38
2024-02-11T19:15:32.558Z,1.40
2024-02-11T19:18:00.266Z,1.40
2024-02-11T19:20:27.216Z,2.40
2024-02-11T19:22:54.112Z,2.70
2024-02-11T19:25:20.663Z,2.33
2024-02-11T19:27:47.547Z,1.60
2024-02-11T19:30:14.927Z,4.25
2024-02-11T19:32:42.025Z,1.60
2024-02-11T19:35:09.951Z,1.85
2024-02-11T19:37:40.652Z,3.45
2024-02-11T19:40:11.274Z,5.97
2024-02-11T19:42:38.832Z,4.05
2024-02-11T19:45:07.686Z,1.65
2024-02-11T19:47:39.855Z,1.20
2024-02-11T19:50:11.608Z,2.33
2024-02-11T19:52:38.656Z,1.30
2024-02-11T19:55:05.618Z,2.38
2024-02-11T19:57:32.551Z,1.17
2024-02-11T19:59:59.844Z,1.55
2024-02-11T20:02:26.889Z,2.10
2024-02-11T20:04:55.315Z,1.20
2024-02-11T20:07:23.962Z,1.20
2024-02-11T20:09:50.672Z,1.77
2024-02-11T20:12:18.398Z,1.30
2024-02-11T20:14:45.531Z,1.33
2024-02-11T20:17:12.404Z,1.30
2024-02-11T20:19:42.052Z,2.80
2024-02-11T20:22:12.692Z,1.60
2024-02-11T20:24:40.773Z,1.73
2024-02-11T20:27:10.172Z,1.50
2024-02-11T20:29:39.934Z,1.20
2024-02-11T20:32:10.056Z,1.13
2024-02-11T20:34:38.854Z,0.95
2024-02-11T20:37:08.653Z,1.30
2024-02-11T20:39:38.266Z,1.20
2024-02-11T20:42:06.098Z,1.30
2024-02-11T20:44:34.937Z,1.02
2024-02-11T20:47:01.866Z,1.42
2024-02-11T20:49:28.719Z,1.38
2024-02-11T20:51:55.400Z,1.45
2024-02-11T20:54:22.261Z,1.50
2024-02-11T20:56:49.400Z,1.42
2024-02-11T20:59:17.817Z,1.35
2024-02-11T21:01:44.600Z,2.20
2024-02-11T21:04:11.370Z,3.13
2024-02-11T21:06:39.006Z,1.98
2024-02-11T21:09:07.546Z,2.13
2024-02-11T21:11:34.307Z,1.77
2024-02-11T21:14:02.277Z,2.47
2024-02-11T21:16:29.042Z,10.68
2024-02-11T21:18:57.503Z,6.00
2024-02-11T21:21:25.942Z,9.98
2024-02-11T21:23:52.618Z,10.85
2024-02-11T21:26:20.593Z,3.28
2024-02-11T21:28:49.242Z,2.28
2024-02-11T21:31:21.673Z,1.85
2024-02-11T21:33:52.955Z,1.10
2024-02-11T21:36:19.895Z,1.52
2024-02-11T21:38:46.523Z,1.20
2024-02-11T21:41:18.681Z,1.02
2024-02-11T21:43:47.235Z,1.40
2024-02-11T21:46:16.533Z,1.17
2024-02-11T21:48:43.237Z,1.00
2024-02-11T21:51:11.154Z,1.20
2024-02-11T21:53:38.722Z,1.05
2024-02-11T21:56:06.861Z,1.10
2024-02-11T21:58:33.690Z,0.98
2024-02-11T22:01:01.706Z,1.02
2024-02-11T22:03:29.213Z,1.10
2024-02-11T22:05:56.696Z,1.20
2024-02-11T22:08:23.577Z,1.55
2024-02-11T22:10:50.442Z,1.40
2024-02-11T22:13:16.941Z,1.13
2024-02-11T22:15:45.013Z,1.10
2024-02-11T22:18:12.294Z,1.33
2024-02-11T22:20:40.306Z,1.23
2024-02-11T22:23:08.193Z,1.50
2024-02-11T22:25:34.876Z,1.10
2024-02-11T22:28:01.454Z,1.40
2024-02-11T22:30:28.035Z,1.50
2024-02-11T22:32:54.985Z,1.20
2024-02-11T22:35:22.495Z,1.27
2024-02-11T22:37:50.707Z,1.50
2024-02-11T22:40:17.657Z,1.10
2024-02-11T22:42:44.711Z,1.38
2024-02-11T22:45:11.304Z,1.25
2024-02-11T22:47:38.071Z,1.25
2024-02-11T22:50:05.271Z,1.35
2024-02-11T22:52:32.874Z,1.50
2024-02-11T22:55:00.212Z,1.23
2024-02-11T22:57:27.409Z,1.38
2024-02-11T22:59:54.282Z,1.30
2024-02-11T23:02:21.711Z,1.10
2024-02-11T23:04:48.809Z,1.23
2024-02-11T23:07:15.530Z,1.23
2024-02-11T23:09:43.389Z,0.90
2024-02-11T23:12:10.571Z,1.30
2024-02-11T23:14:37.428Z,1.73
2024-02-11T23:17:05.372Z,2.17
2024-02-11T23:19:32.306Z,1.50
2024-02-11T23:22:06.239Z,1.42
2024-02-11T23:24:32.777Z,2.17
2024-02-11T23:27:06.724Z,1.70
2024-02-11T23:29:36.586Z,1.02
2024-02-11T23:32:05.244Z,1.65
2024-02-11T23:34:31.869Z,1.33
2024-02-11T23:36:58.853Z,3.90
2024-02-11T23:39:27.375Z,3.30
2024-02-11T23:41:55.580Z,1.30
2024-02-11T23:44:22.176Z,1.50
2024-02-11T23:46:50.352Z,1.45
2024-02-11T23:49:18.636Z,1.30
2024-02-11T23:51:45.359Z,1.42
2024-02-11T23:54:12.001Z,1.20
2024-02-11T23:56:41.528Z,1.40
2024-02-11T23:59:12.387Z,1.65
